sensor_id;sensor_type;location;lat;lon;timestamp;P1;durP1;ratioP1;P2;durP2;ratioP2
69854;SDS011;57146;48.140;16.304;2023-06-19T00:01:43;6.68;;;3.15;;
69854;SDS011;57146;48.140;16.304;2023-06-19T00:04:10;6.63;;;3.00;;
69854;SDS011;57146;48.140;16.304;2023-06-19T00:06:37;7.27;;;3.00;;
69854;SDS011;57146;48.140;16.304;2023-06-19T00:09:06;6.95;;;3.50;;
69854;SDS011;57146;48.140;16.304;2023-06-19T00:11:33;6.57;;;2.88;;
69854;SDS011;57146;48.140;16.304;2023-06-19T00:14:00;7.15;;;3.40;;
69854;SDS011;57146;48.140;16.304;2023-06-19T00:16:27;6.65;;;3.10;;
69854;SDS011;57146;48.140;16.304;2023-06-19T00:18:54;6.73;;;2.90;;
69854;SDS011;57146;48.140;16.304;2023-06-19T00:21:22;6.35;;;3.10;;
69854;SDS011;57146;48.140;16.304;2023-06-19T00:23:50;7.05;;;2.92;;
69854;SDS011;57146;48.140;16.304;2023-06-19T00:26:19;7.28;;;3.22;;
69854;SDS011;57146;48.140;16.304;2023-06-19T00:28:46;7.53;;;3.10;;
69854;SDS011;57146;48.140;16.304;2023-06-19T00:31:13;7.63;;;3.50;;
69854;SDS011;57146;48.140;16.304;2023-06-19T00:33:40;9.18;;;3.17;;
69854;SDS011;57146;48.140;16.304;2023-06-19T00:36:10;6.40;;;3.30;;
69854;SDS011;57146;48.140;16.304;2023-06-19T00:38:39;7.72;;;2.90;;
69854;SDS011;57146;48.140;16.304;2023-06-19T00:41:06;7.15;;;3.40;;
69854;SDS011;57146;48.140;16.304;2023-06-19T00:43:33;7.30;;;3.27;;
69854;SDS011;57146;48.140;16.304;2023-06-19T00:46:01;6.65;;;3.20;;
69854;SDS011;57146;48.140;16.304;2023-06-19T00:48:29;9.95;;;2.92;;
69854;SDS011;57146;48.140;16.304;2023-06-19T00:50:58;6.32;;;3.10;;
69854;SDS011;57146;48.140;16.304;2023-06-19T00:53:26;8.23;;;3.30;;
69854;SDS011;57146;48.140;16.304;2023-06-19T00:55:53;9.03;;;3.30;;
69854;SDS011;57146;48.140;16.304;2023-06-19T00:58:23;5.97;;;2.70;;
69854;SDS011;57146;48.140;16.304;2023-06-19T01:00:50;7.45;;;2.95;;
69854;SDS011;57146;48.140;16.304;2023-06-19T01:03:33;5.97;;;2.90;;
69854;SDS011;57146;48.140;16.304;2023-06-19T01:06:02;6.00;;;2.80;;
69854;SDS011;57146;48.140;16.304;2023-06-19T01:08:41;7.20;;;2.93;;
69854;SDS011;57146;48.140;16.304;2023-06-19T01:11:15;7.75;;;3.67;;
69854;SDS011;57146;48.140;16.304;2023-06-19T01:13:55;6.10;;;2.75;;
69854;SDS011;57146;48.140;16.304;2023-06-19T01:16:43;6.15;;;2.88;;
69854;SDS011;57146;48.140;16.304;2023-06-19T01:19:10;6.30;;;2.70;;
69854;SDS011;57146;48.140;16.304;2023-06-19T01:21:44;6.80;;;3.07;;
69854;SDS011;57146;48.140;16.304;2023-06-19T01:24:13;7.07;;;3.00;;
69854;SDS011;57146;48.140;16.304;2023-06-19T01:26:41;6.40;;;2.80;;
69854;SDS011;57146;48.140;16.304;2023-06-19T01:29:09;6.05;;;2.70;;
69854;SDS011;57146;48.140;16.304;2023-06-19T01:31:46;6.07;;;3.33;;
69854;SDS011;57146;48.140;16.304;2023-06-19T01:34:22;6.33;;;3.20;;
69854;SDS011;57146;48.140;16.304;2023-06-19T01:36:53;6.43;;;2.88;;
69854;SDS011;57146;48.140;16.304;2023-06-19T01:39:21;6.85;;;3.10;;
69854;SDS011;57146;48.140;16.304;2023-06-19T01:41:48;6.88;;;3.20;;
69854;SDS011;57146;48.140;16.304;2023-06-19T01:44:17;6.07;;;2.85;;
69854;SDS011;57146;48.140;16.304;2023-06-19T01:46:49;7.47;;;3.57;;
69854;SDS011;57146;48.140;16.304;2023-06-19T01:49:17;7.32;;;3.17;;
69854;SDS011;57146;48.140;16.304;2023-06-19T01:51:45;7.18;;;3.60;;
69854;SDS011;57146;48.140;16.304;2023-06-19T01:54:12;9.88;;;3.72;;
69854;SDS011;57146;48.140;16.304;2023-06-19T01:56:40;6.57;;;3.30;;
69854;SDS011;57146;48.140;16.304;2023-06-19T01:59:07;7.53;;;2.80;;
69854;SDS011;57146;48.140;16.304;2023-06-19T02:01:34;6.43;;;3.00;;
69854;SDS011;57146;48.140;16.304;2023-06-19T02:04:01;8.63;;;3.72;;
69854;SDS011;57146;48.140;16.304;2023-06-19T02:06:30;7.82;;;3.33;;
69854;SDS011;57146;48.140;16.304;2023-06-19T02:08:57;6.95;;;3.42;;
69854;SDS011;57146;48.140;16.304;2023-06-19T02:11:24;7.63;;;3.40;;
69854;SDS011;57146;48.140;16.304;2023-06-19T02:13:53;6.15;;;2.85;;
69854;SDS011;57146;48.140;16.304;2023-06-19T02:16:20;7.53;;;3.28;;
69854;SDS011;57146;48.140;16.304;2023-06-19T02:18:48;7.00;;;3.25;;
69854;SDS011;57146;48.140;16.304;2023-06-19T02:21:15;7.28;;;3.30;;
69854;SDS011;57146;48.140;16.304;2023-06-19T02:23:42;6.87;;;3.13;;
69854;SDS011;57146;48.140;16.304;2023-06-19T02:26:09;7.70;;;3.47;;
69854;SDS011;57146;48.140;16.304;2023-06-19T02:28:38;8.27;;;3.55;;
69854;SDS011;57146;48.140;16.304;2023-06-19T02:31:05;7.00;;;3.22;;
69854;SDS011;57146;48.140;16.304;2023-06-19T02:33:56;7.22;;;3.40;;
69854;SDS011;57146;48.140;16.304;2023-06-19T02:36:24;7.63;;;3.37;;
69854;SDS011;57146;48.140;16.304;2023-06-19T02:38:51;7.18;;;3.28;;
69854;SDS011;57146;48.140;16.304;2023-06-19T02:41:17;7.13;;;3.35;;
69854;SDS011;57146;48.140;16.304;2023-06-19T02:44:08;8.20;;;3.60;;
69854;SDS011;57146;48.140;16.304;2023-06-19T02:46:35;9.48;;;4.13;;
69854;SDS011;57146;48.140;16.304;2023-06-19T02:49:03;11.47;;;4.47;;
69854;SDS011;57146;48.140;16.304;2023-06-19T02:51:30;8.90;;;4.28;;
69854;SDS011;57146;48.140;16.304;2023-06-19T02:53:58;9.73;;;4.28;;
69854;SDS011;57146;48.140;16.304;2023-06-19T02:56:26;8.40;;;4.10;;
69854;SDS011;57146;48.140;16.304;2023-06-19T02:58:54;8.15;;;3.95;;
69854;SDS011;57146;48.140;16.304;2023-06-19T03:01:21;8.37;;;3.93;;
69854;SDS011;57146;48.140;16.304;2023-06-19T03:03:48;7.47;;;3.88;;
69854;SDS011;57146;48.140;16.304;2023-06-19T03:06:17;8.10;;;3.83;;
69854;SDS011;57146;48.140;16.304;2023-06-19T03:08:47;10.15;;;4.22;;
69854;SDS011;57146;48.140;16.304;2023-06-19T03:11:14;7.43;;;3.88;;
69854;SDS011;57146;48.140;16.304;2023-06-19T03:13:49;9.03;;;4.77;;
69854;SDS011;57146;48.140;16.304;2023-06-19T03:16:19;12.13;;;5.18;;
69854;SDS011;57146;48.140;16.304;2023-06-19T03:18:48;10.88;;;5.20;;
69854;SDS011;57146;48.140;16.304;2023-06-19T03:21:20;9.48;;;4.60;;
69854;SDS011;57146;48.140;16.304;2023-06-19T03:23:49;8.80;;;4.47;;
69854;SDS011;57146;48.140;16.304;2023-06-19T03:26:19;11.07;;;4.60;;
69854;SDS011;57146;48.140;16.304;2023-06-19T03:28:47;9.43;;;4.60;;
69854;SDS011;57146;48.140;16.304;2023-06-19T03:31:15;13.30;;;4.55;;
69854;SDS011;57146;48.140;16.304;2023-06-19T03:33:42;7.72;;;3.90;;
69854;SDS011;57146;48.140;16.304;2023-06-19T03:36:11;9.68;;;4.03;;
69854;SDS011;57146;48.140;16.304;2023-06-19T03:38:49;7.53;;;3.87;;
69854;SDS011;57146;48.140;16.304;2023-06-19T03:41:20;7.53;;;3.60;;
69854;SDS011;57146;48.140;16.304;2023-06-19T03:43:48;8.85;;;3.92;;
69854;SDS011;57146;48.140;16.304;2023-06-19T03:46:16;8.18;;;4.00;;
69854;SDS011;57146;48.140;16.304;2023-06-19T03:48:45;8.90;;;3.88;;
69854;SDS011;57146;48.140;16.304;2023-06-19T03:51:12;7.90;;;3.83;;
69854;SDS011;57146;48.140;16.304;2023-06-19T03:53:39;7.15;;;3.55;;
69854;SDS011;57146;48.140;16.304;2023-06-19T03:56:06;7.85;;;3.88;;
69854;SDS011;57146;48.140;16.304;2023-06-19T03:58:33;9.00;;;4.25;;
69854;SDS011;57146;48.140;16.304;2023-06-19T04:01:01;7.78;;;3.75;;
69854;SDS011;57146;48.140;16.304;2023-06-19T04:03:34;8.23;;;3.60;;
69854;SDS011;57146;48.140;16.304;2023-06-19T04:06:01;8.38;;;3.53;;
69854;SDS011;57146;48.140;16.304;2023-06-19T04:08:30;8.82;;;3.55;;
69854;SDS011;57146;48.140;16.304;2023-06-19T04:10:57;8.40;;;3.60;;
69854;SDS011;57146;48.140;16.304;2023-06-19T04:13:27;7.18;;;3.30;;
69854;SDS011;57146;48.140;16.304;2023-06-19T04:15:54;8.03;;;3.60;;
69854;SDS011;57146;48.140;16.304;2023-06-19T04:18:21;9.35;;;3.60;;
69854;SDS011;57146;48.140;16.304;2023-06-19T04:20:48;8.52;;;4.07;;
69854;SDS011;57146;48.140;16.304;2023-06-19T04:23:15;10.45;;;4.03;;
69854;SDS011;57146;48.140;16.304;2023-06-19T04:25:42;9.35;;;3.88;;
69854;SDS011;57146;48.140;16.304;2023-06-19T04:28:10;8.27;;;3.57;;
69854;SDS011;57146;48.140;16.304;2023-06-19T04:30:38;10.27;;;4.38;;
69854;SDS011;57146;48.140;16.304;2023-06-19T04:33:07;8.45;;;3.85;;
69854;SDS011;57146;48.140;16.304;2023-06-19T04:35:34;10.02;;;4.50;;
69854;SDS011;57146;48.140;16.304;2023-06-19T04:38:01;9.52;;;4.82;;
69854;SDS011;57146;48.140;16.304;2023-06-19T04:40:29;8.53;;;4.33;;
69854;SDS011;57146;48.140;16.304;2023-06-19T04:42:56;8.70;;;4.32;;
69854;SDS011;57146;48.140;16.304;2023-06-19T04:45:23;10.13;;;4.68;;
69854;SDS011;57146;48.140;16.304;2023-06-19T04:47:50;11.27;;;4.63;;
69854;SDS011;57146;48.140;16.304;2023-06-19T04:50:20;10.52;;;4.70;;
69854;SDS011;57146;48.140;16.304;2023-06-19T04:52:48;10.67;;;5.27;;
69854;SDS011;57146;48.140;16.304;2023-06-19T04:55:15;10.77;;;4.97;;
69854;SDS011;57146;48.140;16.304;2023-06-19T04:57:42;11.70;;;5.07;;
69854;SDS011;57146;48.140;16.304;2023-06-19T05:00:12;10.68;;;5.25;;
69854;SDS011;57146;48.140;16.304;2023-06-19T05:02:39;11.48;;;5.68;;
69854;SDS011;57146;48.140;16.304;2023-06-19T05:05:07;12.20;;;5.33;;
69854;SDS011;57146;48.140;16.304;2023-06-19T05:07:34;12.95;;;5.95;;
69854;SDS011;57146;48.140;16.304;2023-06-19T05:10:05;11.48;;;5.53;;
69854;SDS011;57146;48.140;16.304;2023-06-19T05:12:33;13.77;;;6.10;;
69854;SDS011;57146;48.140;16.304;2023-06-19T05:15:02;10.95;;;5.53;;
69854;SDS011;57146;48.140;16.304;2023-06-19T05:17:33;10.63;;;5.83;;
69854;SDS011;57146;48.140;16.304;2023-06-19T05:20:02;12.75;;;5.40;;
69854;SDS011;57146;48.140;16.304;2023-06-19T05:22:31;11.82;;;6.10;;
69854;SDS011;57146;48.140;16.304;2023-06-19T05:24:58;11.23;;;5.68;;
69854;SDS011;57146;48.140;16.304;2023-06-19T05:27:25;12.27;;;6.05;;
69854;SDS011;57146;48.140;16.304;2023-06-19T05:29:52;16.73;;;6.43;;
69854;SDS011;57146;48.140;16.304;2023-06-19T05:32:19;12.73;;;6.80;;
69854;SDS011;57146;48.140;16.304;2023-06-19T05:34:46;13.48;;;6.30;;
69854;SDS011;57146;48.140;16.304;2023-06-19T05:37:13;12.77;;;6.43;;
69854;SDS011;57146;48.140;16.304;2023-06-19T05:39:40;12.38;;;6.10;;
69854;SDS011;57146;48.140;16.304;2023-06-19T05:42:07;12.23;;;6.40;;
69854;SDS011;57146;48.140;16.304;2023-06-19T05:44:33;12.15;;;6.40;;
69854;SDS011;57146;48.140;16.304;2023-06-19T05:47:00;14.00;;;5.97;;
69854;SDS011;57146;48.140;16.304;2023-06-19T05:49:27;12.02;;;5.57;;
69854;SDS011;57146;48.140;16.304;2023-06-19T05:51:56;12.75;;;6.63;;
69854;SDS011;57146;48.140;16.304;2023-06-19T05:54:23;15.67;;;6.67;;
69854;SDS011;57146;48.140;16.304;2023-06-19T05:56:50;15.70;;;6.93;;
69854;SDS011;57146;48.140;16.304;2023-06-19T05:59:16;11.75;;;6.47;;
69854;SDS011;57146;48.140;16.304;2023-06-19T06:01:43;13.20;;;5.82;;
69854;SDS011;57146;48.140;16.304;2023-06-19T06:04:11;11.25;;;6.13;;
69854;SDS011;57146;48.140;16.304;2023-06-19T06:06:39;14.80;;;6.43;;
69854;SDS011;57146;48.140;16.304;2023-06-19T06:09:07;13.63;;;6.18;;
69854;SDS011;57146;48.140;16.304;2023-06-19T06:11:34;12.55;;;6.18;;
69854;SDS011;57146;48.140;16.304;2023-06-19T06:14:01;11.27;;;6.00;;
69854;SDS011;57146;48.140;16.304;2023-06-19T06:16:28;13.32;;;6.30;;
69854;SDS011;57146;48.140;16.304;2023-06-19T06:18:55;12.07;;;6.23;;
69854;SDS011;57146;48.140;16.304;2023-06-19T06:21:23;13.52;;;6.72;;
69854;SDS011;57146;48.140;16.304;2023-06-19T06:23:50;12.35;;;6.70;;
69854;SDS011;57146;48.140;16.304;2023-06-19T06:26:17;12.43;;;5.97;;
69854;SDS011;57146;48.140;16.304;2023-06-19T06:28:44;11.70;;;5.95;;
69854;SDS011;57146;48.140;16.304;2023-06-19T06:31:11;14.40;;;6.27;;
69854;SDS011;57146;48.140;16.304;2023-06-19T06:33:38;11.98;;;5.85;;
69854;SDS011;57146;48.140;16.304;2023-06-19T06:36:05;12.02;;;6.13;;
69854;SDS011;57146;48.140;16.304;2023-06-19T06:38:34;12.85;;;5.63;;
69854;SDS011;57146;48.140;16.304;2023-06-19T06:41:01;13.48;;;5.90;;
69854;SDS011;57146;48.140;16.304;2023-06-19T06:43:28;11.07;;;5.23;;
69854;SDS011;57146;48.140;16.304;2023-06-19T06:45:56;12.30;;;5.82;;
69854;SDS011;57146;48.140;16.304;2023-06-19T06:48:24;10.20;;;5.63;;
69854;SDS011;57146;48.140;16.304;2023-06-19T06:51:15;10.10;;;5.47;;
69854;SDS011;57146;48.140;16.304;2023-06-19T06:53:44;11.20;;;5.55;;
69854;SDS011;57146;48.140;16.304;2023-06-19T06:56:11;9.60;;;4.63;;
69854;SDS011;57146;48.140;16.304;2023-06-19T06:58:39;9.20;;;4.80;;
69854;SDS011;57146;48.140;16.304;2023-06-19T07:01:06;9.93;;;4.95;;
69854;SDS011;57146;48.140;16.304;2023-06-19T07:03:34;8.68;;;5.03;;
69854;SDS011;57146;48.140;16.304;2023-06-19T07:06:02;8.48;;;4.75;;
69854;SDS011;57146;48.140;16.304;2023-06-19T07:08:28;8.10;;;4.60;;
69854;SDS011;57146;48.140;16.304;2023-06-19T07:10:55;9.48;;;4.45;;
69854;SDS011;57146;48.140;16.304;2023-06-19T07:13:48;7.10;;;4.15;;
69854;SDS011;57146;48.140;16.304;2023-06-19T07:16:15;8.95;;;4.32;;
69854;SDS011;57146;48.140;16.304;2023-06-19T07:19:06;8.60;;;4.30;;
69854;SDS011;57146;48.140;16.304;2023-06-19T07:21:33;9.20;;;4.50;;
69854;SDS011;57146;48.140;16.304;2023-06-19T07:24:00;7.72;;;4.57;;
69854;SDS011;57146;48.140;16.304;2023-06-19T07:26:28;8.82;;;4.57;;
69854;SDS011;57146;48.140;16.304;2023-06-19T07:28:55;10.10;;;5.28;;
69854;SDS011;57146;48.140;16.304;2023-06-19T07:31:22;10.10;;;5.25;;
69854;SDS011;57146;48.140;16.304;2023-06-19T07:33:53;12.77;;;5.43;;
69854;SDS011;57146;48.140;16.304;2023-06-19T07:36:21;9.60;;;4.80;;
69854;SDS011;57146;48.140;16.304;2023-06-19T07:38:48;8.18;;;4.80;;
69854;SDS011;57146;48.140;16.304;2023-06-19T07:41:17;9.52;;;4.97;;
69854;SDS011;57146;48.140;16.304;2023-06-19T07:43:44;8.32;;;4.72;;
69854;SDS011;57146;48.140;16.304;2023-06-19T07:46:11;9.07;;;5.17;;
69854;SDS011;57146;48.140;16.304;2023-06-19T07:48:41;9.30;;;4.78;;
69854;SDS011;57146;48.140;16.304;2023-06-19T07:51:10;7.95;;;4.82;;
69854;SDS011;57146;48.140;16.304;2023-06-19T07:53:37;9.70;;;4.97;;
69854;SDS011;57146;48.140;16.304;2023-06-19T07:56:35;12.07;;;5.35;;
69854;SDS011;57146;48.140;16.304;2023-06-19T07:59:02;9.40;;;4.80;;
69854;SDS011;57146;48.140;16.304;2023-06-19T08:01:31;10.65;;;4.85;;
69854;SDS011;57146;48.140;16.304;2023-06-19T08:03:58;8.88;;;4.93;;
69854;SDS011;57146;48.140;16.304;2023-06-19T08:06:25;8.13;;;4.72;;
69854;SDS011;57146;48.140;16.304;2023-06-19T08:08:52;8.52;;;4.28;;
69854;SDS011;57146;48.140;16.304;2023-06-19T08:11:19;8.93;;;4.67;;
69854;SDS011;57146;48.140;16.304;2023-06-19T08:13:48;7.07;;;4.13;;
69854;SDS011;57146;48.140;16.304;2023-06-19T08:16:15;8.32;;;4.65;;
69854;SDS011;57146;48.140;16.304;2023-06-19T08:18:44;9.15;;;4.53;;
69854;SDS011;57146;48.140;16.304;2023-06-19T08:21:12;7.82;;;4.68;;
69854;SDS011;57146;48.140;16.304;2023-06-19T08:23:40;8.47;;;4.90;;
69854;SDS011;57146;48.140;16.304;2023-06-19T08:26:07;9.65;;;4.82;;
69854;SDS011;57146;48.140;16.304;2023-06-19T08:28:37;9.50;;;4.93;;
69854;SDS011;57146;48.140;16.304;2023-06-19T08:31:04;8.48;;;4.60;;
69854;SDS011;57146;48.140;16.304;2023-06-19T08:33:33;8.13;;;4.95;;
69854;SDS011;57146;48.140;16.304;2023-06-19T08:36:03;9.43;;;4.70;;
69854;SDS011;57146;48.140;16.304;2023-06-19T08:38:30;7.38;;;4.53;;
69854;SDS011;57146;48.140;16.304;2023-06-19T08:40:57;8.88;;;5.43;;
69854;SDS011;57146;48.140;16.304;2023-06-19T08:43:25;7.38;;;4.50;;
69854;SDS011;57146;48.140;16.304;2023-06-19T08:46:11;7.05;;;4.38;;
69854;SDS011;57146;48.140;16.304;2023-06-19T08:48:41;9.03;;;4.63;;
69854;SDS011;57146;48.140;16.304;2023-06-19T08:51:11;7.30;;;4.28;;
69854;SDS011;57146;48.140;16.304;2023-06-19T08:53:45;29.45;;;5.55;;
69854;SDS011;57146;48.140;16.304;2023-06-19T08:56:14;8.55;;;4.53;;
69854;SDS011;57146;48.140;16.304;2023-06-19T08:58:41;7.78;;;4.47;;
69854;SDS011;57146;48.140;16.304;2023-06-19T09:01:08;8.73;;;4.53;;
69854;SDS011;57146;48.140;16.304;2023-06-19T09:03:34;7.53;;;4.45;;
69854;SDS011;57146;48.140;16.304;2023-06-19T09:06:08;7.25;;;4.60;;
69854;SDS011;57146;48.140;16.304;2023-06-19T09:08:37;25.75;;;6.05;;
69854;SDS011;57146;48.140;16.304;2023-06-19T09:11:09;16.98;;;5.18;;
69854;SDS011;57146;48.140;16.304;2023-06-19T09:13:43;11.23;;;4.53;;
69854;SDS011;57146;48.140;16.304;2023-06-19T09:16:13;9.55;;;4.45;;
69854;SDS011;57146;48.140;16.304;2023-06-19T09:18:44;8.38;;;5.00;;
69854;SDS011;57146;48.140;16.304;2023-06-19T09:21:17;10.40;;;4.70;;
69854;SDS011;57146;48.140;16.304;2023-06-19T09:23:46;9.48;;;5.07;;
69854;SDS011;57146;48.140;16.304;2023-06-19T09:26:17;10.50;;;5.17;;
69854;SDS011;57146;48.140;16.304;2023-06-19T09:28:44;8.65;;;4.60;;
69854;SDS011;57146;48.140;16.304;2023-06-19T09:31:11;7.63;;;4.88;;
69854;SDS011;57146;48.140;16.304;2023-06-19T09:33:39;8.07;;;4.80;;
69854;SDS011;57146;48.140;16.304;2023-06-19T09:36:07;8.85;;;5.07;;
69854;SDS011;57146;48.140;16.304;2023-06-19T09:38:37;9.50;;;5.20;;
69854;SDS011;57146;48.140;16.304;2023-06-19T09:41:07;7.82;;;4.72;;
69854;SDS011;57146;48.140;16.304;2023-06-19T09:46:05;8.43;;;4.72;;
69854;SDS011;57146;48.140;16.304;2023-06-19T09:48:33;10.05;;;5.25;;
69854;SDS011;57146;48.140;16.304;2023-06-19T09:53:44;9.48;;;5.40;;
69854;SDS011;57146;48.140;16.304;2023-06-19T09:56:16;10.82;;;4.75;;
69854;SDS011;57146;48.140;16.304;2023-06-19T09:58:44;7.90;;;4.72;;
69854;SDS011;57146;48.140;16.304;2023-06-19T10:01:12;7.53;;;5.30;;
69854;SDS011;57146;48.140;16.304;2023-06-19T10:03:40;7.77;;;5.57;;
69854;SDS011;57146;48.140;16.304;2023-06-19T10:06:12;8.95;;;5.18;;
69854;SDS011;57146;48.140;16.304;2023-06-19T10:08:41;9.25;;;5.45;;
69854;SDS011;57146;48.140;16.304;2023-06-19T10:11:11;7.78;;;4.97;;
69854;SDS011;57146;48.140;16.304;2023-06-19T10:13:42;10.32;;;5.55;;
69854;SDS011;57146;48.140;16.304;2023-06-19T10:16:19;9.23;;;5.60;;
69854;SDS011;57146;48.140;16.304;2023-06-19T10:18:47;9.93;;;5.57;;
69854;SDS011;57146;48.140;16.304;2023-06-19T10:21:15;8.48;;;5.38;;
69854;SDS011;57146;48.140;16.304;2023-06-19T10:23:43;9.25;;;5.72;;
69854;SDS011;57146;48.140;16.304;2023-06-19T10:26:20;12.07;;;5.80;;
69854;SDS011;57146;48.140;16.304;2023-06-19T10:29:12;11.70;;;5.10;;
69854;SDS011;57146;48.140;16.304;2023-06-19T10:31:43;7.95;;;5.68;;
69854;SDS011;57146;48.140;16.304;2023-06-19T10:34:10;9.18;;;5.97;;
69854;SDS011;57146;48.140;16.304;2023-06-19T10:36:37;11.07;;;6.47;;
69854;SDS011;57146;48.140;16.304;2023-06-19T10:39:04;8.48;;;5.82;;
69854;SDS011;57146;48.140;16.304;2023-06-19T10:41:31;9.40;;;5.40;;
69854;SDS011;57146;48.140;16.304;2023-06-19T10:44:00;9.30;;;5.80;;
69854;SDS011;57146;48.140;16.304;2023-06-19T10:46:30;7.90;;;5.43;;
69854;SDS011;57146;48.140;16.304;2023-06-19T10:48:59;9.48;;;6.10;;
69854;SDS011;57146;48.140;16.304;2023-06-19T10:51:27;10.95;;;5.60;;
69854;SDS011;57146;48.140;16.304;2023-06-19T10:53:55;9.07;;;5.70;;
69854;SDS011;57146;48.140;16.304;2023-06-19T10:56:22;10.15;;;6.10;;
69854;SDS011;57146;48.140;16.304;2023-06-19T10:58:59;9.75;;;5.63;;
69854;SDS011;57146;48.140;16.304;2023-06-19T11:01:47;8.98;;;5.70;;
69854;SDS011;57146;48.140;16.304;2023-06-19T11:04:15;7.80;;;5.18;;
69854;SDS011;57146;48.140;16.304;2023-06-19T11:06:43;9.13;;;5.50;;
69854;SDS011;57146;48.140;16.304;2023-06-19T11:09:11;8.48;;;5.55;;
69854;SDS011;57146;48.140;16.304;2023-06-19T11:14:09;9.30;;;5.50;;
69854;SDS011;57146;48.140;16.304;2023-06-19T11:16:38;9.13;;;5.25;;
69854;SDS011;57146;48.140;16.304;2023-06-19T11:19:07;7.97;;;5.20;;
69854;SDS011;57146;48.140;16.304;2023-06-19T11:21:37;7.18;;;5.07;;
69854;SDS011;57146;48.140;16.304;2023-06-19T11:24:04;8.07;;;5.20;;
69854;SDS011;57146;48.140;16.304;2023-06-19T11:26:37;8.85;;;4.90;;
69854;SDS011;57146;48.140;16.304;2023-06-19T11:29:21;8.98;;;5.55;;
69854;SDS011;57146;48.140;16.304;2023-06-19T11:31:50;7.83;;;5.40;;
69854;SDS011;57146;48.140;16.304;2023-06-19T11:34:18;8.70;;;5.00;;
69854;SDS011;57146;48.140;16.304;2023-06-19T11:36:52;8.60;;;5.55;;
69854;SDS011;57146;48.140;16.304;2023-06-19T11:39:19;9.02;;;4.70;;
69854;SDS011;57146;48.140;16.304;2023-06-19T11:41:46;7.70;;;5.00;;
69854;SDS011;57146;48.140;16.304;2023-06-19T11:44:14;7.77;;;4.90;;
69854;SDS011;57146;48.140;16.304;2023-06-19T11:46:41;7.40;;;3.90;;
69854;SDS011;57146;48.140;16.304;2023-06-19T11:49:13;6.65;;;4.45;;
69854;SDS011;57146;48.140;16.304;2023-06-19T11:51:41;10.98;;;4.43;;
69854;SDS011;57146;48.140;16.304;2023-06-19T11:54:09;7.15;;;4.57;;
69854;SDS011;57146;48.140;16.304;2023-06-19T11:56:37;7.73;;;4.60;;
69854;SDS011;57146;48.140;16.304;2023-06-19T11:59:04;6.88;;;4.80;;
69854;SDS011;57146;48.140;16.304;2023-06-19T12:01:32;9.23;;;4.53;;
69854;SDS011;57146;48.140;16.304;2023-06-19T12:04:00;9.65;;;4.47;;
69854;SDS011;57146;48.140;16.304;2023-06-19T12:06:28;8.45;;;4.40;;
69854;SDS011;57146;48.140;16.304;2023-06-19T12:08:56;6.80;;;4.40;;
69854;SDS011;57146;48.140;16.304;2023-06-19T12:11:23;7.97;;;4.35;;
69854;SDS011;57146;48.140;16.304;2023-06-19T12:13:50;6.93;;;4.35;;
69854;SDS011;57146;48.140;16.304;2023-06-19T12:16:17;7.93;;;4.38;;
69854;SDS011;57146;48.140;16.304;2023-06-19T12:18:44;7.75;;;4.68;;
69854;SDS011;57146;48.140;16.304;2023-06-19T12:21:11;7.73;;;5.00;;
69854;SDS011;57146;48.140;16.304;2023-06-19T12:23:58;8.60;;;4.32;;
69854;SDS011;57146;48.140;16.304;2023-06-19T12:26:25;7.43;;;4.47;;
69854;SDS011;57146;48.140;16.304;2023-06-19T12:28:52;7.10;;;4.35;;
69854;SDS011;57146;48.140;16.304;2023-06-19T12:31:20;7.95;;;4.35;;
69854;SDS011;57146;48.140;16.304;2023-06-19T12:33:47;7.27;;;4.30;;
69854;SDS011;57146;48.140;16.304;2023-06-19T12:36:14;5.60;;;3.80;;
69854;SDS011;57146;48.140;16.304;2023-06-19T12:38:41;8.05;;;4.60;;
69854;SDS011;57146;48.140;16.304;2023-06-19T12:41:08;7.80;;;4.32;;
69854;SDS011;57146;48.140;16.304;2023-06-19T12:43:35;6.20;;;3.97;;
69854;SDS011;57146;48.140;16.304;2023-06-19T12:46:02;7.47;;;4.97;;
69854;SDS011;57146;48.140;16.304;2023-06-19T12:48:29;7.95;;;4.97;;
69854;SDS011;57146;48.140;16.304;2023-06-19T12:50:56;7.53;;;4.45;;
69854;SDS011;57146;48.140;16.304;2023-06-19T12:53:23;7.20;;;4.05;;
69854;SDS011;57146;48.140;16.304;2023-06-19T12:55:50;7.70;;;4.57;;
69854;SDS011;57146;48.140;16.304;2023-06-19T12:58:26;6.57;;;4.47;;
69854;SDS011;57146;48.140;16.304;2023-06-19T13:00:53;7.65;;;4.70;;
69854;SDS011;57146;48.140;16.304;2023-06-19T13:03:20;9.25;;;4.72;;
69854;SDS011;57146;48.140;16.304;2023-06-19T13:05:47;9.70;;;4.65;;
69854;SDS011;57146;48.140;16.304;2023-06-19T13:08:15;7.53;;;4.78;;
69854;SDS011;57146;48.140;16.304;2023-06-19T13:10:42;6.37;;;4.43;;
69854;SDS011;57146;48.140;16.304;2023-06-19T13:13:09;8.38;;;4.50;;
69854;SDS011;57146;48.140;16.304;2023-06-19T13:15:36;8.23;;;4.47;;
69854;SDS011;57146;48.140;16.304;2023-06-19T13:18:03;8.52;;;4.75;;
69854;SDS011;57146;48.140;16.304;2023-06-19T13:20:30;7.82;;;4.20;;
69854;SDS011;57146;48.140;16.304;2023-06-19T13:22:57;8.23;;;4.40;;
69854;SDS011;57146;48.140;16.304;2023-06-19T13:25:23;7.80;;;4.80;;
69854;SDS011;57146;48.140;16.304;2023-06-19T13:27:50;9.40;;;4.43;;
69854;SDS011;57146;48.140;16.304;2023-06-19T13:30:17;8.02;;;4.57;;
69854;SDS011;57146;48.140;16.304;2023-06-19T13:32:44;6.78;;;4.28;;
69854;SDS011;57146;48.140;16.304;2023-06-19T13:35:11;6.77;;;4.70;;
69854;SDS011;57146;48.140;16.304;2023-06-19T13:37:38;6.90;;;4.68;;
69854;SDS011;57146;48.140;16.304;2023-06-19T13:40:06;8.63;;;4.70;;
69854;SDS011;57146;48.140;16.304;2023-06-19T13:42:33;7.28;;;4.70;;
69854;SDS011;57146;48.140;16.304;2023-06-19T13:45:01;7.97;;;4.68;;
69854;SDS011;57146;48.140;16.304;2023-06-19T13:47:28;7.03;;;4.47;;
69854;SDS011;57146;48.140;16.304;2023-06-19T13:49:55;7.68;;;4.47;;
69854;SDS011;57146;48.140;16.304;2023-06-19T13:52:23;7.50;;;4.65;;
69854;SDS011;57146;48.140;16.304;2023-06-19T13:54:49;9.43;;;4.88;;
69854;SDS011;57146;48.140;16.304;2023-06-19T13:57:20;8.25;;;4.85;;
69854;SDS011;57146;48.140;16.304;2023-06-19T13:59:46;8.47;;;4.70;;
69854;SDS011;57146;48.140;16.304;2023-06-19T14:02:13;10.90;;;4.28;;
69854;SDS011;57146;48.140;16.304;2023-06-19T14:04:40;8.18;;;4.18;;
69854;SDS011;57146;48.140;16.304;2023-06-19T14:07:07;6.13;;;4.35;;
69854;SDS011;57146;48.140;16.304;2023-06-19T14:09:35;7.93;;;4.47;;
69854;SDS011;57146;48.140;16.304;2023-06-19T14:12:02;8.07;;;4.03;;
69854;SDS011;57146;48.140;16.304;2023-06-19T14:14:29;7.07;;;4.70;;
69854;SDS011;57146;48.140;16.304;2023-06-19T14:16:56;8.82;;;4.65;;
69854;SDS011;57146;48.140;16.304;2023-06-19T14:19:23;7.25;;;4.43;;
69854;SDS011;57146;48.140;16.304;2023-06-19T14:21:50;6.70;;;4.13;;
69854;SDS011;57146;48.140;16.304;2023-06-19T14:24:18;8.33;;;4.33;;
69854;SDS011;57146;48.140;16.304;2023-06-19T14:26:45;6.78;;;4.35;;
69854;SDS011;57146;48.140;16.304;2023-06-19T14:29:11;6.82;;;4.75;;
69854;SDS011;57146;48.140;16.304;2023-06-19T14:31:38;6.63;;;4.38;;
69854;SDS011;57146;48.140;16.304;2023-06-19T14:34:07;6.68;;;4.30;;
69854;SDS011;57146;48.140;16.304;2023-06-19T14:36:33;7.17;;;4.57;;
69854;SDS011;57146;48.140;16.304;2023-06-19T14:39:00;8.60;;;4.43;;
69854;SDS011;57146;48.140;16.304;2023-06-19T14:41:27;6.18;;;4.35;;
69854;SDS011;57146;48.140;16.304;2023-06-19T14:43:54;7.57;;;4.47;;
69854;SDS011;57146;48.140;16.304;2023-06-19T14:46:21;6.53;;;4.45;;
69854;SDS011;57146;48.140;16.304;2023-06-19T14:49:11;6.83;;;4.33;;